Terminal Aerodrome Forecast
Issued by NWS Sioux Falls, SD

Home | Current Version | Previous Version | Graphics & Text | Print | Product List | Glossary On
Versions: 1 2 3 4 5 6 7 8 9 10 11 12 13 14 15
000
FTUS43 KFSD 230520
TAFFSD
TAF
KFSD 230520Z 2306/2406 31005KT P6SM OVC015
     FM231300 00000KT 3SM BR OVC010
     FM231700 17004KT P6SM BKN015
     FM232000 14007KT P6SM OVC020=

USA.gov is the U.S. government's official web portal to all federal, state and local government web resources and services.